Tropical Cyclones
[Index]
Main Index Home Page Stock Weather Photos Extreme Storms Discussion Storm News and Storm Chasing Reports Tropical Cyclones / Hurricanes / Typhoons Weather Data and Links Wild Fires / Bushfires Weather Observation Techniques Weather Picture Catalogue Tornado Pictures and Reports Stock Video Footage and DVDs for sale
Season 2010-2011 Tropical Cyclone ANTHONY Track Map
Season 2010-2011 Summaries (Operational Data): [AU] [SIO] [SPAC] [SH]
<<- Previous TC | 2010-2011 Season | Next TC ->>

click for intensity scale information  Lat/long Grid: Show Hide

 Date Labels: Show Hide

Operational Tropical Cyclone Data : JTWC Advisories | BoM Warnings

Name: ANTHONY
Number: 1109

22 Jan 2011 06:00 UTC to 31 Jan 2011 00:00 UTC

    date/time    lat    long     hPa   cat  kts
2011-01-22 06   16.2   146.5     999                     
2011-01-22 12   15.6   146.7     999                     
2011-01-22 18   15.3   147.6     996                     
2011-01-22 21   15.3   148.2     994    1    35          
2011-01-23 00   15.5   148.9     990    1    40          
2011-01-23 06   15.7   150.9     988    1    45          
2011-01-23 12   16.5   153.4     986    1    45          
2011-01-23 18   16.7   155.3     991    1    40          
2011-01-24 00   18.3   157.0     998    1    35          
2011-01-24 06   18.5   158.4     995    1    35          
2011-01-24 12   19.0   159.8     997    1    35          
2011-01-24 18   19.0   160.1     988    1    40          
2011-01-25 00   19.4   160.8     992    1    35          
2011-01-25 04   19.6   160.7     994         30          
2011-01-25 12   19.4   160.0     996    1    35          
2011-01-25 18   19.2   159.6     996    1    35          
2011-01-26 00   19.0   159.5     997    1    35          
2011-01-26 06   18.9   158.5     996    1    35          
2011-01-26 12   18.6   158.0     996    1    35          
2011-01-26 18   18.8   156.7     996    1    35          
2011-01-27 00   17.8   155.6     999    1    35          
2011-01-27 06   17.4   154.8     998    1    35          
2011-01-27 12   16.8   154.3     998    1    35          
2011-01-27 18   16.1   154.4     995    1    35          
2011-01-28 00   16.0   155.1     990    1    35          
2011-01-28 06   15.7   155.3     988    1    35          
2011-01-28 12   16.1   155.2     997    1    35          
2011-01-28 18   16.1   154.7     999    1    35          
2011-01-29 00   15.5   154.7     996    1    35          
2011-01-29 06   15.5   153.9     996    1    35          
2011-01-29 12   15.9   153.4     996    1    35          
2011-01-29 15   16.2   153.0     996    1    35          
2011-01-29 18   17.1   152.0     988    1    35          
2011-01-30 00   18.3   150.9     988    1    45          
2011-01-30 03   18.8   150.2     988    2    50          
2011-01-30 06   19.2   149.5     988    2    50          
2011-01-30 08   19.6   149.1     984    2    55          
2011-01-30 12   20.0   148.1     991    1    45          
2011-01-30 14   20.2   147.7     999         30          
2011-01-30 18   18.5   147.2    1005                     
2011-01-31 00   19.3   142.9    1008                     
Winds are 10-min average.

Tropical cyclone tracks developed by Michael Bath using operational warnings and advisories and Google Maps.


[Australian Severe Weather index] [Copyright Notice] [Email Contacts] [Search This Site] [Privacy Policy]
Document: tropical_cyclone_anthony.htm Updated: 2 May 2017